Surface/Precipitation History
05/10/2012 04:52  to  5/11/2012 04:52
Change End Date:
To complete the export process:
1) Select all of the data below
2) Copy the data to the clipboard
3) Open a word processor such as Notepad
4) Paste the data into the word processor
5) Save the file

Date/Time (MST), SfStatus, SfTemp, SubTemp, FreezeTemp, ChemFactor, ChemPercent, WaterDepth, IcePercent, Conductivity, Salinity, PrecipType, PrecipIntensity, Accumulation, PrecipRate
05/11/2012 04:07, Error, 36.1, 57, , , , , , 6, 0 , None, None , ,  
05/11/2012 03:36, Error, 36.5, 57, , , , , , 6, 0 , None, None , ,  
05/11/2012 03:07, Error, 37.2, 57, , , , , , 6, 0 , None, None , ,  
05/11/2012 02:36, Error, 38.3, 57, , , , , , 6, 0 , None, None , ,  
05/11/2012 02:06, Error, 39.6, 57, , , , , , 6, 0 , None, None , ,  
05/11/2012 01:37, Error, 40.5, 58, , , , , , 6, 0 , None, None , ,  
05/11/2012 01:07, Error, 41.4, 58, , , , , , 6, 0 , None, None , ,  
05/11/2012 00:36, Error, 41.4, 58, , , , , , 6, 0 , None, None , ,  
05/11/2012 00:07, Error, 42.4, 58, , , , , , 6, 0 , None, None , ,  
05/10/2012 23:37, Error, 43.9, 58, , , , , , 6, 0 , None, None , ,  
05/10/2012 23:07, Error, 44.6, 58, , , , , , 6, 0 , None, None , ,  
05/10/2012 22:37, Error, 45.1, 58, , , , , , 6, 0 , None, None , ,  
05/10/2012 22:07, Error, 45.9, 58, , , , , , 6, 0 , None, None , ,  
05/10/2012 21:36, Error, 47.3, 58, , , , , , 6, 0 , None, None , ,  
05/10/2012 21:07, Error, 47.8, 58, , , , , , 6, 0 , None, None , ,  
05/10/2012 20:37, Error, 48.6, 58, , , , , , 6, 0 , None, None , ,  
05/10/2012 20:07, Error, 50, 58, , , , , , 6, 0 , None, None , ,  
05/10/2012 19:37, Dry, 51.6, 57, , , , , , 6, 0 , None, None , ,  
05/10/2012 19:07, Dry, 53.4, 57, , , , , , 6, 0 , None, None , ,  
05/10/2012 18:37, Dry, 56.3, 57, , , , , , 6, 0 , None, None , ,  
05/10/2012 18:07, Dry, 60.3, 57, , , , , , 6, 0 , None, None , ,  
05/10/2012 17:37, Dry, 65.3, 57, , , , , , 6, 0 , None, None , ,  
05/10/2012 17:07, Error, 76.1, 57, , , , , , 6, 0 , None, None , ,  
05/10/2012 16:37, Error, 83.8, 57, , , , , , 4, 0 , None, None , ,  
05/10/2012 16:07, Error, 86.5, 57, , , , , , 4, 0 , None, None , ,  
05/10/2012 15:37, Error, 77.9, 57, , , , , , 6, 0 , None, None , ,  
05/10/2012 15:07, Error, 88.9, 57, , , , , , 4, 0 , None, None , ,  
05/10/2012 14:37, Error, 75.2, 57, , , , , , 7, 0 , None, None , ,  
05/10/2012 14:07, Error, 81.3, 57, , , , , , 7, 0 , None, None , ,  
05/10/2012 13:37, Error, 90.1, 57, , , , , , 5, 0 , None, None , ,  
05/10/2012 13:07, Error, 86.2, 57, , , , , , 9, 0 , None, None , ,  
05/10/2012 12:37, Error, 66.9, 58, , , , , , 28, 0 , None, None , ,  
05/10/2012 12:07, Error, 56.7, 58, , , , , , 28, 0 , Yes, , ,  
05/10/2012 11:37, Error, 59, 58, , , , , , 27, 0 , Yes, , ,  
05/10/2012 11:07, Error, 46, 58, , , , , , 27, 0 , Yes, , ,  
05/10/2012 10:37, Error, 43, 59, , , , , , 24, 0 , Yes, , ,  
05/10/2012 10:07, Error, 44.8, 59, , , , , , 24, 0 , Yes, , ,  
05/10/2012 09:37, Error, 46, 59, , , , , , 19, 0 , Yes, , ,  
05/10/2012 09:07, Error, 41.7, 59, , , , , , 16, 0 , Yes, , ,  
05/10/2012 08:37, Error, 43.5, 59, , , , , , 14, 0 , Yes, , ,  
05/10/2012 08:07, Error, 41.7, 60, , , , , , 13, 0 , Yes, , ,  
05/10/2012 07:37, Error, 39.9, 60, , , , , , 14, 0 , Yes, , ,  
05/10/2012 07:06, Error, 42.4, 60, , , , , , 15, 0 , Yes, , ,  
05/10/2012 06:37, Error, 44.2, 60, , , , , , 0, 0 , Yes, , ,  
05/10/2012 06:07, Error, 47.8, 60, , , , , , 0, 0 , None, None , ,  
05/10/2012 05:37, Error, 49.3, 60, , , , , , 0, 0 , None, None , ,  
05/10/2012 05:06, Error, 50, 60, , , , , , 0, 0 , None, None , ,  
Change End Date:
Copyright © 1998-2005 Surface Systems, Inc.
All Rights Reserved
Send comments about the data to:
SCAN Web ® is a registered trademark of Surface Systems, Inc.
SCAN Web Version 5.6